sensor_id;sensor_type;location;lat;lon;timestamp;P1;durP1;ratioP1;P2;durP2;ratioP2
15155;SDS011;7678;50.058;8.306;2023-08-21T00:01:32;5.27;;;4.77;;
15155;SDS011;7678;50.058;8.306;2023-08-21T00:04:00;6.00;;;5.40;;
15155;SDS011;7678;50.058;8.306;2023-08-21T00:06:29;6.10;;;5.43;;
15155;SDS011;7678;50.058;8.306;2023-08-21T00:08:58;7.77;;;5.37;;
15155;SDS011;7678;50.058;8.306;2023-08-21T00:11:29;10.93;;;5.33;;
15155;SDS011;7678;50.058;8.306;2023-08-21T00:14:00;6.70;;;5.10;;
15155;SDS011;7678;50.058;8.306;2023-08-21T00:16:28;5.80;;;5.20;;
15155;SDS011;7678;50.058;8.306;2023-08-21T00:18:56;7.73;;;5.17;;
15155;SDS011;7678;50.058;8.306;2023-08-21T00:21:25;6.17;;;5.00;;
15155;SDS011;7678;50.058;8.306;2023-08-21T00:23:54;5.80;;;5.20;;
15155;SDS011;7678;50.058;8.306;2023-08-21T00:26:24;7.03;;;5.30;;
15155;SDS011;7678;50.058;8.306;2023-08-21T00:28:52;5.33;;;4.83;;
15155;SDS011;7678;50.058;8.306;2023-08-21T00:31:20;5.90;;;5.30;;
15155;SDS011;7678;50.058;8.306;2023-08-21T00:33:49;6.00;;;5.40;;
15155;SDS011;7678;50.058;8.306;2023-08-21T00:36:17;5.67;;;5.17;;
15155;SDS011;7678;50.058;8.306;2023-08-21T00:38:46;6.70;;;4.80;;
15155;SDS011;7678;50.058;8.306;2023-08-21T00:41:16;6.43;;;5.50;;
15155;SDS011;7678;50.058;8.306;2023-08-21T00:43:44;6.77;;;4.90;;
15155;SDS011;7678;50.058;8.306;2023-08-21T00:46:13;8.30;;;5.57;;
15155;SDS011;7678;50.058;8.306;2023-08-21T00:48:42;5.70;;;5.20;;
15155;SDS011;7678;50.058;8.306;2023-08-21T00:51:11;5.60;;;5.10;;
15155;SDS011;7678;50.058;8.306;2023-08-21T00:53:41;5.57;;;5.03;;
15155;SDS011;7678;50.058;8.306;2023-08-21T00:56:10;11.43;;;5.77;;
15155;SDS011;7678;50.058;8.306;2023-08-21T00:58:40;6.00;;;5.40;;
15155;SDS011;7678;50.058;8.306;2023-08-21T01:01:08;6.37;;;5.77;;
15155;SDS011;7678;50.058;8.306;2023-08-21T01:03:37;8.50;;;5.73;;
15155;SDS011;7678;50.058;8.306;2023-08-21T01:06:05;6.67;;;5.80;;
15155;SDS011;7678;50.058;8.306;2023-08-21T01:08:35;7.53;;;5.97;;
15155;SDS011;7678;50.058;8.306;2023-08-21T01:11:12;6.23;;;5.50;;
15155;SDS011;7678;50.058;8.306;2023-08-21T01:13:51;9.07;;;5.87;;
15155;SDS011;7678;50.058;8.306;2023-08-21T01:16:30;7.23;;;5.30;;
15155;SDS011;7678;50.058;8.306;2023-08-21T01:19:00;6.70;;;6.00;;
15155;SDS011;7678;50.058;8.306;2023-08-21T01:21:31;6.30;;;5.70;;
15155;SDS011;7678;50.058;8.306;2023-08-21T01:24:00;6.90;;;5.87;;
15155;SDS011;7678;50.058;8.306;2023-08-21T01:26:28;6.87;;;5.83;;
15155;SDS011;7678;50.058;8.306;2023-08-21T01:28:56;6.17;;;5.57;;
15155;SDS011;7678;50.058;8.306;2023-08-21T01:31:26;7.17;;;6.10;;
15155;SDS011;7678;50.058;8.306;2023-08-21T01:33:59;7.20;;;5.67;;
15155;SDS011;7678;50.058;8.306;2023-08-21T01:36:30;7.00;;;6.33;;
15155;SDS011;7678;50.058;8.306;2023-08-21T01:39:01;8.67;;;6.53;;
15155;SDS011;7678;50.058;8.306;2023-08-21T01:41:29;7.27;;;6.33;;
15155;SDS011;7678;50.058;8.306;2023-08-21T01:43:57;7.50;;;6.23;;
15155;SDS011;7678;50.058;8.306;2023-08-21T01:46:25;7.33;;;6.57;;
15155;SDS011;7678;50.058;8.306;2023-08-21T01:48:53;7.60;;;6.90;;
15155;SDS011;7678;50.058;8.306;2023-08-21T01:51:26;7.27;;;6.57;;
15155;SDS011;7678;50.058;8.306;2023-08-21T01:53:55;9.17;;;7.33;;
15155;SDS011;7678;50.058;8.306;2023-08-21T01:56:24;11.27;;;6.93;;
15155;SDS011;7678;50.058;8.306;2023-08-21T01:58:52;11.47;;;7.50;;
15155;SDS011;7678;50.058;8.306;2023-08-21T02:01:20;8.30;;;7.50;;
15155;SDS011;7678;50.058;8.306;2023-08-21T02:03:49;10.27;;;7.50;;
15155;SDS011;7678;50.058;8.306;2023-08-21T02:06:18;7.80;;;7.03;;
15155;SDS011;7678;50.058;8.306;2023-08-21T02:08:46;7.60;;;6.90;;
15155;SDS011;7678;50.058;8.306;2023-08-21T02:11:14;8.10;;;7.23;;
15155;SDS011;7678;50.058;8.306;2023-08-21T02:13:43;10.27;;;7.40;;
15155;SDS011;7678;50.058;8.306;2023-08-21T02:16:11;9.40;;;6.97;;
15155;SDS011;7678;50.058;8.306;2023-08-21T02:18:40;11.67;;;7.13;;
15155;SDS011;7678;50.058;8.306;2023-08-21T02:21:08;9.67;;;7.17;;
15155;SDS011;7678;50.058;8.306;2023-08-21T02:23:38;11.00;;;8.10;;
15155;SDS011;7678;50.058;8.306;2023-08-21T02:26:06;8.07;;;7.27;;
15155;SDS011;7678;50.058;8.306;2023-08-21T02:28:35;11.17;;;8.00;;
15155;SDS011;7678;50.058;8.306;2023-08-21T02:31:04;10.03;;;7.90;;
15155;SDS011;7678;50.058;8.306;2023-08-21T02:33:36;8.63;;;6.83;;
15155;SDS011;7678;50.058;8.306;2023-08-21T02:36:04;9.17;;;7.43;;
15155;SDS011;7678;50.058;8.306;2023-08-21T02:38:33;8.23;;;7.23;;
15155;SDS011;7678;50.058;8.306;2023-08-21T02:41:01;7.73;;;6.80;;
15155;SDS011;7678;50.058;8.306;2023-08-21T02:43:29;12.00;;;6.77;;
15155;SDS011;7678;50.058;8.306;2023-08-21T02:45:57;8.70;;;7.73;;
15155;SDS011;7678;50.058;8.306;2023-08-21T02:48:27;9.27;;;7.67;;
15155;SDS011;7678;50.058;8.306;2023-08-21T02:50:55;7.60;;;7.00;;
15155;SDS011;7678;50.058;8.306;2023-08-21T02:53:23;8.47;;;7.67;;
15155;SDS011;7678;50.058;8.306;2023-08-21T02:55:51;10.07;;;7.10;;
15155;SDS011;7678;50.058;8.306;2023-08-21T02:58:19;8.13;;;7.23;;
15155;SDS011;7678;50.058;8.306;2023-08-21T03:00:48;9.23;;;7.37;;
15155;SDS011;7678;50.058;8.306;2023-08-21T03:03:16;8.37;;;7.57;;
15155;SDS011;7678;50.058;8.306;2023-08-21T03:05:46;8.43;;;7.63;;
15155;SDS011;7678;50.058;8.306;2023-08-21T03:08:14;8.13;;;7.43;;
15155;SDS011;7678;50.058;8.306;2023-08-21T03:10:43;8.63;;;7.87;;
15155;SDS011;7678;50.058;8.306;2023-08-21T03:13:11;9.37;;;8.27;;
15155;SDS011;7678;50.058;8.306;2023-08-21T03:15:39;8.57;;;7.77;;
15155;SDS011;7678;50.058;8.306;2023-08-21T03:18:07;8.93;;;8.13;;
15155;SDS011;7678;50.058;8.306;2023-08-21T03:20:35;8.60;;;7.80;;
15155;SDS011;7678;50.058;8.306;2023-08-21T03:23:05;8.53;;;7.80;;
15155;SDS011;7678;50.058;8.306;2023-08-21T03:25:32;12.03;;;8.73;;
15155;SDS011;7678;50.058;8.306;2023-08-21T03:28:01;11.33;;;8.10;;
15155;SDS011;7678;50.058;8.306;2023-08-21T03:30:29;8.90;;;8.00;;
15155;SDS011;7678;50.058;8.306;2023-08-21T03:32:57;9.40;;;8.40;;
15155;SDS011;7678;50.058;8.306;2023-08-21T03:35:25;9.33;;;8.43;;
15155;SDS011;7678;50.058;8.306;2023-08-21T03:37:53;9.50;;;8.50;;
15155;SDS011;7678;50.058;8.306;2023-08-21T03:40:23;10.97;;;8.83;;
15155;SDS011;7678;50.058;8.306;2023-08-21T03:42:51;9.67;;;8.83;;
15155;SDS011;7678;50.058;8.306;2023-08-21T03:45:20;10.33;;;8.93;;
15155;SDS011;7678;50.058;8.306;2023-08-21T03:47:48;8.67;;;7.77;;
15155;SDS011;7678;50.058;8.306;2023-08-21T03:50:16;10.03;;;8.97;;
15155;SDS011;7678;50.058;8.306;2023-08-21T03:52:44;10.83;;;8.40;;
15155;SDS011;7678;50.058;8.306;2023-08-21T03:55:15;10.70;;;9.57;;
15155;SDS011;7678;50.058;8.306;2023-08-21T03:57:45;9.40;;;8.33;;
15155;SDS011;7678;50.058;8.306;2023-08-21T04:00:13;13.57;;;8.87;;
15155;SDS011;7678;50.058;8.306;2023-08-21T04:02:42;11.37;;;8.17;;
15155;SDS011;7678;50.058;8.306;2023-08-21T04:05:10;9.60;;;8.50;;
15155;SDS011;7678;50.058;8.306;2023-08-21T04:07:39;9.67;;;8.80;;
15155;SDS011;7678;50.058;8.306;2023-08-21T04:10:07;9.40;;;8.40;;
15155;SDS011;7678;50.058;8.306;2023-08-21T04:12:36;9.80;;;8.77;;
15155;SDS011;7678;50.058;8.306;2023-08-21T04:15:06;9.37;;;8.40;;
15155;SDS011;7678;50.058;8.306;2023-08-21T04:17:35;10.63;;;8.73;;
15155;SDS011;7678;50.058;8.306;2023-08-21T04:20:04;9.60;;;8.60;;
15155;SDS011;7678;50.058;8.306;2023-08-21T04:22:35;9.80;;;8.80;;
15155;SDS011;7678;50.058;8.306;2023-08-21T04:25:04;9.80;;;8.87;;
15155;SDS011;7678;50.058;8.306;2023-08-21T04:27:34;11.90;;;9.70;;
15155;SDS011;7678;50.058;8.306;2023-08-21T04:30:03;10.97;;;9.87;;
15155;SDS011;7678;50.058;8.306;2023-08-21T04:32:34;11.60;;;8.77;;
15155;SDS011;7678;50.058;8.306;2023-08-21T04:35:03;10.63;;;9.63;;
15155;SDS011;7678;50.058;8.306;2023-08-21T04:37:34;10.73;;;9.73;;
15155;SDS011;7678;50.058;8.306;2023-08-21T04:40:05;14.77;;;9.97;;
15155;SDS011;7678;50.058;8.306;2023-08-21T04:42:34;14.77;;;10.20;;
15155;SDS011;7678;50.058;8.306;2023-08-21T04:45:03;10.60;;;9.70;;
15155;SDS011;7678;50.058;8.306;2023-08-21T04:47:33;11.63;;;9.27;;
15155;SDS011;7678;50.058;8.306;2023-08-21T04:50:01;10.77;;;9.77;;
15155;SDS011;7678;50.058;8.306;2023-08-21T04:52:29;11.67;;;9.03;;
15155;SDS011;7678;50.058;8.306;2023-08-21T04:54:57;10.00;;;9.00;;
15155;SDS011;7678;50.058;8.306;2023-08-21T04:57:26;10.23;;;9.23;;
15155;SDS011;7678;50.058;8.306;2023-08-21T04:59:54;11.40;;;10.23;;
15155;SDS011;7678;50.058;8.306;2023-08-21T05:02:22;11.43;;;9.70;;
15155;SDS011;7678;50.058;8.306;2023-08-21T05:04:51;9.93;;;8.93;;
15155;SDS011;7678;50.058;8.306;2023-08-21T05:07:20;12.83;;;9.73;;
15155;SDS011;7678;50.058;8.306;2023-08-21T05:09:49;12.00;;;9.37;;
15155;SDS011;7678;50.058;8.306;2023-08-21T05:12:17;11.63;;;9.97;;
15155;SDS011;7678;50.058;8.306;2023-08-21T05:14:45;9.53;;;8.63;;
15155;SDS011;7678;50.058;8.306;2023-08-21T05:17:13;10.43;;;8.80;;
15155;SDS011;7678;50.058;8.306;2023-08-21T05:19:41;9.83;;;8.93;;
15155;SDS011;7678;50.058;8.306;2023-08-21T05:22:10;10.30;;;9.30;;
15155;SDS011;7678;50.058;8.306;2023-08-21T05:24:38;9.70;;;8.63;;
15155;SDS011;7678;50.058;8.306;2023-08-21T05:27:07;10.60;;;9.07;;
15155;SDS011;7678;50.058;8.306;2023-08-21T05:29:35;9.07;;;8.17;;
15155;SDS011;7678;50.058;8.306;2023-08-21T05:32:03;9.60;;;8.60;;
15155;SDS011;7678;50.058;8.306;2023-08-21T05:34:32;11.47;;;8.60;;
15155;SDS011;7678;50.058;8.306;2023-08-21T05:37:00;11.37;;;8.50;;
15155;SDS011;7678;50.058;8.306;2023-08-21T05:39:29;9.23;;;8.33;;
15155;SDS011;7678;50.058;8.306;2023-08-21T05:41:57;12.23;;;8.67;;
15155;SDS011;7678;50.058;8.306;2023-08-21T05:44:26;9.13;;;8.23;;
15155;SDS011;7678;50.058;8.306;2023-08-21T05:46:57;12.80;;;10.20;;
15155;SDS011;7678;50.058;8.306;2023-08-21T05:49:25;10.87;;;8.60;;
15155;SDS011;7678;50.058;8.306;2023-08-21T05:51:53;9.00;;;8.10;;
15155;SDS011;7678;50.058;8.306;2023-08-21T05:54:25;9.10;;;8.20;;
15155;SDS011;7678;50.058;8.306;2023-08-21T05:56:54;9.17;;;8.27;;
15155;SDS011;7678;50.058;8.306;2023-08-21T05:59:29;9.37;;;8.37;;
15155;SDS011;7678;50.058;8.306;2023-08-21T06:01:59;8.83;;;8.10;;
15155;SDS011;7678;50.058;8.306;2023-08-21T06:04:27;9.50;;;8.67;;
15155;SDS011;7678;50.058;8.306;2023-08-21T06:06:56;10.83;;;9.47;;
15155;SDS011;7678;50.058;8.306;2023-08-21T06:09:24;13.67;;;8.93;;
15155;SDS011;7678;50.058;8.306;2023-08-21T06:11:52;9.30;;;8.40;;
15155;SDS011;7678;50.058;8.306;2023-08-21T06:14:22;9.40;;;8.50;;
15155;SDS011;7678;50.058;8.306;2023-08-21T06:16:55;9.57;;;8.60;;
15155;SDS011;7678;50.058;8.306;2023-08-21T06:19:25;10.13;;;9.13;;
15155;SDS011;7678;50.058;8.306;2023-08-21T06:21:53;9.10;;;8.20;;
15155;SDS011;7678;50.058;8.306;2023-08-21T06:24:22;10.90;;;8.40;;
15155;SDS011;7678;50.058;8.306;2023-08-21T06:26:51;10.67;;;9.67;;
15155;SDS011;7678;50.058;8.306;2023-08-21T06:29:19;9.43;;;8.37;;
15155;SDS011;7678;50.058;8.306;2023-08-21T06:31:49;11.47;;;9.07;;
15155;SDS011;7678;50.058;8.306;2023-08-21T06:34:17;9.07;;;7.77;;
15155;SDS011;7678;50.058;8.306;2023-08-21T06:36:48;9.20;;;8.30;;
15155;SDS011;7678;50.058;8.306;2023-08-21T06:39:16;8.50;;;7.60;;
15155;SDS011;7678;50.058;8.306;2023-08-21T06:41:44;8.47;;;7.63;;
15155;SDS011;7678;50.058;8.306;2023-08-21T06:44:14;7.83;;;7.03;;
15155;SDS011;7678;50.058;8.306;2023-08-21T06:46:43;8.43;;;7.63;;
15155;SDS011;7678;50.058;8.306;2023-08-21T06:49:11;7.60;;;7.00;;
15155;SDS011;7678;50.058;8.306;2023-08-21T06:51:40;9.53;;;7.73;;
15155;SDS011;7678;50.058;8.306;2023-08-21T06:54:08;8.77;;;7.90;;
15155;SDS011;7678;50.058;8.306;2023-08-21T06:56:36;8.43;;;7.63;;
15155;SDS011;7678;50.058;8.306;2023-08-21T06:59:04;7.97;;;7.23;;
15155;SDS011;7678;50.058;8.306;2023-08-21T07:01:33;8.63;;;7.73;;
15155;SDS011;7678;50.058;8.306;2023-08-21T07:04:02;9.00;;;8.13;;
15155;SDS011;7678;50.058;8.306;2023-08-21T07:06:30;9.97;;;7.80;;
15155;SDS011;7678;50.058;8.306;2023-08-21T07:08:58;13.27;;;8.70;;
15155;SDS011;7678;50.058;8.306;2023-08-21T07:11:28;10.43;;;8.60;;
15155;SDS011;7678;50.058;8.306;2023-08-21T07:13:56;12.10;;;8.17;;
15155;SDS011;7678;50.058;8.306;2023-08-21T07:16:25;8.50;;;7.40;;
15155;SDS011;7678;50.058;8.306;2023-08-21T07:18:53;15.37;;;8.00;;
15155;SDS011;7678;50.058;8.306;2023-08-21T07:21:23;8.53;;;7.60;;
15155;SDS011;7678;50.058;8.306;2023-08-21T07:23:59;9.50;;;7.93;;
15155;SDS011;7678;50.058;8.306;2023-08-21T07:26:27;8.43;;;7.63;;
15155;SDS011;7678;50.058;8.306;2023-08-21T07:28:56;10.43;;;7.00;;
15155;SDS011;7678;50.058;8.306;2023-08-21T07:31:24;8.03;;;6.70;;
15155;SDS011;7678;50.058;8.306;2023-08-21T07:33:53;7.27;;;6.63;;
15155;SDS011;7678;50.058;8.306;2023-08-21T07:36:22;11.30;;;7.87;;
15155;SDS011;7678;50.058;8.306;2023-08-21T07:38:50;11.40;;;8.40;;
15155;SDS011;7678;50.058;8.306;2023-08-21T07:41:18;8.93;;;7.10;;
15155;SDS011;7678;50.058;8.306;2023-08-21T07:43:49;8.53;;;7.73;;
15155;SDS011;7678;50.058;8.306;2023-08-21T07:46:17;9.23;;;8.00;;
15155;SDS011;7678;50.058;8.306;2023-08-21T07:48:45;9.20;;;7.43;;
15155;SDS011;7678;50.058;8.306;2023-08-21T07:51:13;8.83;;;7.60;;
15155;SDS011;7678;50.058;8.306;2023-08-21T07:53:43;7.87;;;7.13;;
15155;SDS011;7678;50.058;8.306;2023-08-21T07:56:11;9.77;;;7.27;;
15155;SDS011;7678;50.058;8.306;2023-08-21T07:58:40;8.37;;;7.50;;
15155;SDS011;7678;50.058;8.306;2023-08-21T08:01:08;8.37;;;7.30;;
15155;SDS011;7678;50.058;8.306;2023-08-21T08:03:36;7.33;;;6.63;;
15155;SDS011;7678;50.058;8.306;2023-08-21T08:06:04;15.23;;;7.63;;
15155;SDS011;7678;50.058;8.306;2023-08-21T08:08:33;10.30;;;7.43;;
15155;SDS011;7678;50.058;8.306;2023-08-21T08:11:06;13.90;;;7.87;;
15155;SDS011;7678;50.058;8.306;2023-08-21T08:13:34;9.27;;;7.40;;
15155;SDS011;7678;50.058;8.306;2023-08-21T08:16:02;8.80;;;7.90;;
15155;SDS011;7678;50.058;8.306;2023-08-21T08:18:31;9.53;;;7.37;;
15155;SDS011;7678;50.058;8.306;2023-08-21T08:20:59;7.13;;;6.43;;
15155;SDS011;7678;50.058;8.306;2023-08-21T08:23:27;8.97;;;7.50;;
15155;SDS011;7678;50.058;8.306;2023-08-21T08:25:58;9.03;;;8.13;;
15155;SDS011;7678;50.058;8.306;2023-08-21T08:28:27;9.83;;;7.87;;
15155;SDS011;7678;50.058;8.306;2023-08-21T08:30:58;11.10;;;8.90;;
15155;SDS011;7678;50.058;8.306;2023-08-21T08:33:26;10.10;;;7.87;;
15155;SDS011;7678;50.058;8.306;2023-08-21T08:35:54;10.27;;;8.20;;
15155;SDS011;7678;50.058;8.306;2023-08-21T08:38:22;12.30;;;8.17;;
15155;SDS011;7678;50.058;8.306;2023-08-21T08:40:51;9.17;;;7.43;;
15155;SDS011;7678;50.058;8.306;2023-08-21T08:43:23;9.87;;;7.87;;
15155;SDS011;7678;50.058;8.306;2023-08-21T08:45:55;10.00;;;7.63;;
15155;SDS011;7678;50.058;8.306;2023-08-21T08:48:27;10.30;;;7.40;;
15155;SDS011;7678;50.058;8.306;2023-08-21T08:50:56;8.07;;;7.20;;
15155;SDS011;7678;50.058;8.306;2023-08-21T08:53:24;16.40;;;7.87;;
15155;SDS011;7678;50.058;8.306;2023-08-21T08:55:54;8.43;;;7.63;;
15155;SDS011;7678;50.058;8.306;2023-08-21T08:58:22;8.07;;;6.97;;
15155;SDS011;7678;50.058;8.306;2023-08-21T09:00:50;7.93;;;6.67;;
15155;SDS011;7678;50.058;8.306;2023-08-21T09:03:24;7.40;;;6.60;;
15155;SDS011;7678;50.058;8.306;2023-08-21T09:05:56;8.17;;;6.93;;
15155;SDS011;7678;50.058;8.306;2023-08-21T09:08:26;7.93;;;7.13;;
15155;SDS011;7678;50.058;8.306;2023-08-21T09:10:54;8.27;;;6.67;;
15155;SDS011;7678;50.058;8.306;2023-08-21T09:13:22;11.83;;;7.37;;
15155;SDS011;7678;50.058;8.306;2023-08-21T09:15:53;10.17;;;6.77;;
15155;SDS011;7678;50.058;8.306;2023-08-21T09:18:22;9.40;;;6.30;;
15155;SDS011;7678;50.058;8.306;2023-08-21T09:20:51;7.13;;;6.43;;
15155;SDS011;7678;50.058;8.306;2023-08-21T09:23:22;7.37;;;6.67;;
15155;SDS011;7678;50.058;8.306;2023-08-21T09:25:55;9.47;;;6.70;;
15155;SDS011;7678;50.058;8.306;2023-08-21T09:28:25;7.93;;;6.90;;
15155;SDS011;7678;50.058;8.306;2023-08-21T09:30:54;6.97;;;6.07;;
15155;SDS011;7678;50.058;8.306;2023-08-21T09:33:24;10.00;;;6.77;;
15155;SDS011;7678;50.058;8.306;2023-08-21T09:35:55;12.90;;;6.43;;
15155;SDS011;7678;50.058;8.306;2023-08-21T09:38:26;8.07;;;6.47;;
15155;SDS011;7678;50.058;8.306;2023-08-21T09:40:54;7.03;;;6.33;;
15155;SDS011;7678;50.058;8.306;2023-08-21T09:43:23;7.53;;;6.17;;
15155;SDS011;7678;50.058;8.306;2023-08-21T09:45:54;14.63;;;6.90;;
15155;SDS011;7678;50.058;8.306;2023-08-21T09:48:26;9.97;;;6.53;;
15155;SDS011;7678;50.058;8.306;2023-08-21T09:50:55;8.07;;;6.07;;
15155;SDS011;7678;50.058;8.306;2023-08-21T09:53:24;13.67;;;6.43;;
15155;SDS011;7678;50.058;8.306;2023-08-21T09:55:55;9.97;;;6.87;;
15155;SDS011;7678;50.058;8.306;2023-08-21T09:58:23;8.53;;;6.20;;
15155;SDS011;7678;50.058;8.306;2023-08-21T10:00:52;7.03;;;6.33;;
15155;SDS011;7678;50.058;8.306;2023-08-21T10:03:24;7.23;;;5.70;;
15155;SDS011;7678;50.058;8.306;2023-08-21T10:05:58;7.10;;;6.40;;
15155;SDS011;7678;50.058;8.306;2023-08-21T10:08:27;8.83;;;7.10;;
15155;SDS011;7678;50.058;8.306;2023-08-21T10:10:57;8.43;;;6.20;;
15155;SDS011;7678;50.058;8.306;2023-08-21T10:13:30;8.10;;;5.77;;
15155;SDS011;7678;50.058;8.306;2023-08-21T10:16:00;7.73;;;5.60;;
15155;SDS011;7678;50.058;8.306;2023-08-21T10:18:29;7.10;;;6.40;;
15155;SDS011;7678;50.058;8.306;2023-08-21T10:21:13;7.87;;;6.20;;
15155;SDS011;7678;50.058;8.306;2023-08-21T10:23:45;8.47;;;6.17;;
15155;SDS011;7678;50.058;8.306;2023-08-21T10:26:15;9.53;;;6.60;;
15155;SDS011;7678;50.058;8.306;2023-08-21T10:28:49;7.23;;;6.10;;
15155;SDS011;7678;50.058;8.306;2023-08-21T10:31:33;7.00;;;6.23;;
15155;SDS011;7678;50.058;8.306;2023-08-21T10:34:02;6.73;;;6.03;;
15155;SDS011;7678;50.058;8.306;2023-08-21T10:36:40;7.40;;;6.30;;
15155;SDS011;7678;50.058;8.306;2023-08-21T10:39:33;6.83;;;5.93;;
15155;SDS011;7678;50.058;8.306;2023-08-21T10:42:04;10.27;;;6.03;;
15155;SDS011;7678;50.058;8.306;2023-08-21T10:47:22;8.30;;;6.03;;
15155;SDS011;7678;50.058;8.306;2023-08-21T10:50:22;9.77;;;5.50;;
15155;SDS011;7678;50.058;8.306;2023-08-21T10:52:51;7.83;;;5.67;;
15155;SDS011;7678;50.058;8.306;2023-08-21T10:55:22;8.77;;;5.87;;
15155;SDS011;7678;50.058;8.306;2023-08-21T10:57:50;9.33;;;5.80;;
15155;SDS011;7678;50.058;8.306;2023-08-21T11:00:19;6.10;;;5.37;;
15155;SDS011;7678;50.058;8.306;2023-08-21T11:02:49;8.20;;;5.27;;
15155;SDS011;7678;50.058;8.306;2023-08-21T11:05:18;7.13;;;5.47;;
15155;SDS011;7678;50.058;8.306;2023-08-21T11:07:50;7.32;;;5.15;;
15155;SDS011;7678;50.058;8.306;2023-08-21T11:10:27;6.07;;;5.30;;
15155;SDS011;7678;50.058;8.306;2023-08-21T11:12:59;5.55;;;4.95;;
15155;SDS011;7678;50.058;8.306;2023-08-21T11:15:28;9.40;;;5.13;;
15155;SDS011;7678;50.058;8.306;2023-08-21T11:17:57;6.88;;;5.05;;
15155;SDS011;7678;50.058;8.306;2023-08-21T11:20:30;6.00;;;5.05;;
15155;SDS011;7678;50.058;8.306;2023-08-21T11:22:59;11.40;;;4.93;;
15155;SDS011;7678;50.058;8.306;2023-08-21T11:25:28;7.50;;;5.30;;
15155;SDS011;7678;50.058;8.306;2023-08-21T11:27:57;6.18;;;4.78;;
15155;SDS011;7678;50.058;8.306;2023-08-21T11:30:25;9.32;;;4.70;;
15155;SDS011;7678;50.058;8.306;2023-08-21T11:33:06;7.68;;;4.20;;
15155;SDS011;7678;50.058;8.306;2023-08-21T11:35:37;5.65;;;4.45;;
15155;SDS011;7678;50.058;8.306;2023-08-21T11:38:06;8.02;;;4.72;;
15155;SDS011;7678;50.058;8.306;2023-08-21T11:40:40;6.32;;;4.50;;
15155;SDS011;7678;50.058;8.306;2023-08-21T11:43:10;4.63;;;4.20;;
15155;SDS011;7678;50.058;8.306;2023-08-21T11:45:42;6.07;;;4.43;;
15155;SDS011;7678;50.058;8.306;2023-08-21T11:48:24;4.45;;;3.65;;
15155;SDS011;7678;50.058;8.306;2023-08-21T11:51:00;5.30;;;3.70;;
15155;SDS011;7678;50.058;8.306;2023-08-21T11:53:32;6.85;;;3.63;;
15155;SDS011;7678;50.058;8.306;2023-08-21T11:56:03;3.35;;;3.05;;
15155;SDS011;7678;50.058;8.306;2023-08-21T11:58:38;6.15;;;3.50;;
15155;SDS011;7678;50.058;8.306;2023-08-21T12:01:10;4.25;;;3.72;;
15155;SDS011;7678;50.058;8.306;2023-08-21T12:03:47;4.10;;;3.80;;
15155;SDS011;7678;50.058;8.306;2023-08-21T12:06:23;6.15;;;3.88;;
15155;SDS011;7678;50.058;8.306;2023-08-21T12:08:55;5.05;;;3.90;;
15155;SDS011;7678;50.058;8.306;2023-08-21T12:11:24;11.65;;;3.80;;
15155;SDS011;7678;50.058;8.306;2023-08-21T12:13:53;5.68;;;4.00;;
15155;SDS011;7678;50.058;8.306;2023-08-21T12:16:23;5.05;;;3.88;;
15155;SDS011;7678;50.058;8.306;2023-08-21T12:18:53;6.72;;;4.18;;
15155;SDS011;7678;50.058;8.306;2023-08-21T12:21:25;4.88;;;3.17;;
15155;SDS011;7678;50.058;8.306;2023-08-21T12:23:53;5.22;;;3.25;;
15155;SDS011;7678;50.058;8.306;2023-08-21T12:26:21;4.15;;;3.30;;
15155;SDS011;7678;50.058;8.306;2023-08-21T12:29:00;3.13;;;2.85;;
15155;SDS011;7678;50.058;8.306;2023-08-21T12:31:28;5.47;;;3.03;;
15155;SDS011;7678;50.058;8.306;2023-08-21T12:33:58;5.22;;;2.70;;
15155;SDS011;7678;50.058;8.306;2023-08-21T12:36:27;3.80;;;2.60;;
15155;SDS011;7678;50.058;8.306;2023-08-21T12:38:56;2.78;;;2.58;;
15155;SDS011;7678;50.058;8.306;2023-08-21T12:41:26;3.20;;;2.53;;
15155;SDS011;7678;50.058;8.306;2023-08-21T12:43:55;2.90;;;2.70;;
15155;SDS011;7678;50.058;8.306;2023-08-21T12:46:26;4.53;;;3.08;;
15155;SDS011;7678;50.058;8.306;2023-08-21T12:48:55;3.78;;;2.88;;
15155;SDS011;7678;50.058;8.306;2023-08-21T12:51:27;2.80;;;2.60;;
15155;SDS011;7678;50.058;8.306;2023-08-21T12:53:56;3.17;;;2.80;;
15155;SDS011;7678;50.058;8.306;2023-08-21T12:56:27;3.00;;;2.70;;
15155;SDS011;7678;50.058;8.306;2023-08-21T12:58:56;2.78;;;2.58;;
15155;SDS011;7678;50.058;8.306;2023-08-21T13:01:25;3.35;;;2.90;;
15155;SDS011;7678;50.058;8.306;2023-08-21T13:03:54;3.08;;;2.60;;
15155;SDS011;7678;50.058;8.306;2023-08-21T13:06:23;5.75;;;2.08;;
15155;SDS011;7678;50.058;8.306;2023-08-21T13:08:53;2.67;;;2.47;;
15155;SDS011;7678;50.058;8.306;2023-08-21T13:11:21;3.40;;;2.30;;
15155;SDS011;7678;50.058;8.306;2023-08-21T13:13:50;9.55;;;2.30;;
15155;SDS011;7678;50.058;8.306;2023-08-21T13:16:19;4.47;;;2.03;;
15155;SDS011;7678;50.058;8.306;2023-08-21T13:18:50;2.35;;;2.00;;
15155;SDS011;7678;50.058;8.306;2023-08-21T13:21:18;3.03;;;2.40;;
15155;SDS011;7678;50.058;8.306;2023-08-21T13:23:47;4.38;;;1.90;;
15155;SDS011;7678;50.058;8.306;2023-08-21T13:26:21;2.20;;;2.00;;
15155;SDS011;7678;50.058;8.306;2023-08-21T13:28:49;2.75;;;2.15;;
15155;SDS011;7678;50.058;8.306;2023-08-21T13:31:18;2.45;;;2.08;;
15155;SDS011;7678;50.058;8.306;2023-08-21T13:33:50;2.50;;;2.10;;
15155;SDS011;7678;50.058;8.306;2023-08-21T13:36:20;5.13;;;2.22;;
15155;SDS011;7678;50.058;8.306;2023-08-21T13:38:51;2.58;;;1.95;;
15155;SDS011;7678;50.058;8.306;2023-08-21T13:41:23;2.72;;;1.92;;
15155;SDS011;7678;50.058;8.306;2023-08-21T13:43:54;3.90;;;2.13;;
15155;SDS011;7678;50.058;8.306;2023-08-21T13:46:31;2.50;;;1.90;;
15155;SDS011;7678;50.058;8.306;2023-08-21T13:49:05;2.88;;;1.83;;
15155;SDS011;7678;50.058;8.306;2023-08-21T13:51:36;2.20;;;2.00;;
15155;SDS011;7678;50.058;8.306;2023-08-21T13:54:07;3.30;;;2.28;;
15155;SDS011;7678;50.058;8.306;2023-08-21T13:56:37;4.47;;;2.10;;
15155;SDS011;7678;50.058;8.306;2023-08-21T13:59:10;3.40;;;2.15;;
15155;SDS011;7678;50.058;8.306;2023-08-21T14:01:38;3.55;;;1.90;;
15155;SDS011;7678;50.058;8.306;2023-08-21T14:04:06;5.07;;;2.10;;
15155;SDS011;7678;50.058;8.306;2023-08-21T14:06:34;2.22;;;1.90;;
15155;SDS011;7678;50.058;8.306;2023-08-21T14:09:02;3.25;;;1.95;;
15155;SDS011;7678;50.058;8.306;2023-08-21T14:11:30;2.40;;;2.20;;
15155;SDS011;7678;50.058;8.306;2023-08-21T14:14:00;4.30;;;2.28;;
15155;SDS011;7678;50.058;8.306;2023-08-21T14:16:28;2.90;;;1.75;;
15155;SDS011;7678;50.058;8.306;2023-08-21T14:19:02;2.40;;;2.03;;
15155;SDS011;7678;50.058;8.306;2023-08-21T14:21:30;2.05;;;1.70;;
15155;SDS011;7678;50.058;8.306;2023-08-21T14:23:58;3.42;;;1.73;;
15155;SDS011;7678;50.058;8.306;2023-08-21T14:26:27;2.22;;;1.85;;
15155;SDS011;7678;50.058;8.306;2023-08-21T14:28:55;3.25;;;1.90;;
15155;SDS011;7678;50.058;8.306;2023-08-21T14:31:25;3.17;;;1.80;;
15155;SDS011;7678;50.058;8.306;2023-08-21T14:33:53;2.50;;;1.90;;
15155;SDS011;7678;50.058;8.306;2023-08-21T14:36:21;4.93;;;2.25;;
15155;SDS011;7678;50.058;8.306;2023-08-21T14:38:49;2.70;;;2.05;;
15155;SDS011;7678;50.058;8.306;2023-08-21T14:41:18;3.25;;;2.30;;
15155;SDS011;7678;50.058;8.306;2023-08-21T14:43:46;3.97;;;1.75;;
15155;SDS011;7678;50.058;8.306;2023-08-21T14:46:14;5.32;;;2.30;;
15155;SDS011;7678;50.058;8.306;2023-08-21T14:49:01;2.58;;;2.05;;
15155;SDS011;7678;50.058;8.306;2023-08-21T14:51:29;3.63;;;2.03;;
15155;SDS011;7678;50.058;8.306;2023-08-21T14:53:57;3.15;;;2.00;;
15155;SDS011;7678;50.058;8.306;2023-08-21T14:56:25;2.55;;;1.80;;
15155;SDS011;7678;50.058;8.306;2023-08-21T14:58:53;3.75;;;1.88;;
15155;SDS011;7678;50.058;8.306;2023-08-21T15:01:21;2.92;;;1.95;;
15155;SDS011;7678;50.058;8.306;2023-08-21T15:03:50;5.40;;;2.15;;
15155;SDS011;7678;50.058;8.306;2023-08-21T15:06:19;3.92;;;2.33;;
15155;SDS011;7678;50.058;8.306;2023-08-21T15:08:47;5.60;;;2.28;;
15155;SDS011;7678;50.058;8.306;2023-08-21T15:11:15;2.33;;;2.13;;
15155;SDS011;7678;50.058;8.306;2023-08-21T15:13:43;2.95;;;2.33;;
15155;SDS011;7678;50.058;8.306;2023-08-21T15:16:11;4.05;;;2.00;;